Stephen R Warden — WDC6523 — position and weather

sailwx.info

Track history (hours):
 
Tides and Currents Weather Stations Pressure Air Temp Water Temp Dewpoint Dewpoint Depression Visibility Wind Speed Wind Dir Waves Ship Positions

Stephen R Warden

Owner: American Commercial Lines LLC, Jeffersonvile, IN. More information available from US FCC via Universal Licensing System and Coast Guard Vessel Documentation Center.

Last reported at 2014-Oct-24 07:33 UTC. Time now 2014-Oct-24 07:49 UTC.
Position N 30°01' W 090°44'.

Length 37 m; draft 3 m.

Type: Towing. MMSI: 367057460.

Date/timePositionNaut miles runAvg speedWind from/ knotsBaromVisibWave heightAir tempDewpointWater temp
2014-Oct-24 07:33N 30°01' W 090°44'2 2.3
2014-Oct-24 06:33N 30°02' W 090°42'4 3.4
2014-Oct-24 05:19N 30°02' W 090°37'2 1.9
2014-Oct-24 04:08N 30°03' W 090°35'1 0.4
2014-Oct-24 02:32N 30°03' W 090°34'31 1.4
2014-Oct-23 04:33N 29°56' W 089°59'0 0.0
2014-Oct-23 00:27N 29°56' W 089°59'0 0.0
2014-Oct-22 23:31N 29°56' W 089°59'17 1.5
2014-Oct-22 12:20N 29°39' W 089°57'21 1.0
2014-Oct-21 14:23N 29°55' W 090°13'5 4.6
2014-Oct-21 13:14N 29°57' W 090°18'2 3.4
2014-Oct-21 12:33N 29°56' W 090°21'3 3.3
2014-Oct-21 11:33N 29°59' W 090°24'8 1.1
2014-Oct-21 04:19N 30°03' W 090°31'4 5.3
2014-Oct-21 03:31N 30°02' W 090°36'6 5.1
2014-Oct-21 02:19N 30°01' W 090°43'2 0.1
2014-Oct-20 09:31N 30°01' W 090°46'0 0.0
2014-Oct-20 07:19N 30°01' W 090°46'0 0.0
2014-Oct-20 06:33N 30°01' W 090°46'1 0.7
2014-Oct-20 04:26N 30°01' W 090°44'0 0.2
2014-Oct-20 03:04N 30°01' W 090°44'0 0.0
2014-Oct-20 02:31N 30°01' W 090°44'1 0.8
2014-Oct-20 01:09N 30°01' W 090°43'11 0.2
2014-Oct-18 05:31N 30°03' W 090°30'14 0.6
2014-Oct-17 07:33N 30°01' W 090°46'0 0.0
2014-Oct-17 05:33N 30°01' W 090°46'0 0.0
2014-Oct-17 03:32N 30°01' W 090°46'1 0.1
2014-Oct-16 13:14N 30°01' W 090°45'0 0.0
2014-Oct-16 12:33N 30°01' W 090°45'0 0.2
2014-Oct-16 11:33N 30°01' W 090°45'4 4.1
2014-Oct-16 10:31N 29°60' W 090°50'6 5.7
2014-Oct-16 09:24N 30°05' W 090°54'0 0.0
2014-Oct-16 07:31N 30°05' W 090°55'4 3.3
2014-Oct-16 06:24N 30°08' W 090°56'4 1.9
2014-Oct-16 04:20N 30°07' W 091°00'5 0.3
2014-Oct-15 13:17N 30°05' W 090°55'2 3.0
2014-Oct-15 12:33N 30°04' W 090°53'2 2.1
2014-Oct-15 11:31N 30°03' W 090°50'4 4.1
2014-Oct-15 10:33N 29°59' W 090°48'2 2.1
2014-Oct-15 09:33N 30°01' W 090°46'0 0.0
2014-Oct-15 08:33N 30°01' W 090°46'0 0.0
2014-Oct-15 07:33N 30°01' W 090°46'0 0.0
2014-Oct-15 06:22N 30°01' W 090°46'0 0.0
2014-Oct-15 05:33N 30°01' W 090°46'0 0.0
2014-Oct-15 04:33N 30°01' W 090°46'0 0.5
2014-Oct-15 03:33N 30°01' W 090°46'0 0.0
2014-Oct-15 02:17N 30°01' W 090°46'3 4.0
2014-Oct-15 01:33N 29°59' W 090°49'  
Track history (hours):
 
Tides and Currents Weather Stations Pressure Air Temp Water Temp Dewpoint Dewpoint Depression Visibility Wind Speed Wind Dir Waves Ship Positions

Stephen R Warden

Owner: American Commercial Lines LLC, Jeffersonvile, IN. More information available from US FCC via Universal Licensing System and Coast Guard Vessel Documentation Center.

Last reported at 2014-Oct-24 07:33 UTC. Time now 2014-Oct-24 07:49 UTC.
Position N 30°01' W 090°44'.

Length 37 m; draft 3 m.

Type: Towing. MMSI: 367057460.

Date/timePositionNaut miles runAvg speedWind from/ knotsBaromVisibWave heightAir tempDewpointWater temp
2014-Oct-24 07:33N 30°01' W 090°44'2 2.3
2014-Oct-24 06:33N 30°02' W 090°42'4 3.4
2014-Oct-24 05:19N 30°02' W 090°37'2 1.9
2014-Oct-24 04:08N 30°03' W 090°35'1 0.4
2014-Oct-24 02:32N 30°03' W 090°34'31 1.4
2014-Oct-23 04:33N 29°56' W 089°59'0 0.0
2014-Oct-23 00:27N 29°56' W 089°59'0 0.0
2014-Oct-22 23:31N 29°56' W 089°59'17 1.5
2014-Oct-22 12:20N 29°39' W 089°57'21 1.0
2014-Oct-21 14:23N 29°55' W 090°13'5 4.6
2014-Oct-21 13:14N 29°57' W 090°18'2 3.4
2014-Oct-21 12:33N 29°56' W 090°21'3 3.3
2014-Oct-21 11:33N 29°59' W 090°24'8 1.1
2014-Oct-21 04:19N 30°03' W 090°31'4 5.3
2014-Oct-21 03:31N 30°02' W 090°36'6 5.1
2014-Oct-21 02:19N 30°01' W 090°43'2 0.1
2014-Oct-20 09:31N 30°01' W 090°46'0 0.0
2014-Oct-20 07:19N 30°01' W 090°46'0 0.0
2014-Oct-20 06:33N 30°01' W 090°46'1 0.7
2014-Oct-20 04:26N 30°01' W 090°44'0 0.2
2014-Oct-20 03:04N 30°01' W 090°44'0 0.0
2014-Oct-20 02:31N 30°01' W 090°44'1 0.8
2014-Oct-20 01:09N 30°01' W 090°43'11 0.2
2014-Oct-18 05:31N 30°03' W 090°30'14 0.6
2014-Oct-17 07:33N 30°01' W 090°46'0 0.0
2014-Oct-17 05:33N 30°01' W 090°46'0 0.0
2014-Oct-17 03:32N 30°01' W 090°46'1 0.1
2014-Oct-16 13:14N 30°01' W 090°45'0 0.0
2014-Oct-16 12:33N 30°01' W 090°45'0 0.2
2014-Oct-16 11:33N 30°01' W 090°45'4 4.1
2014-Oct-16 10:31N 29°60' W 090°50'6 5.7
2014-Oct-16 09:24N 30°05' W 090°54'0 0.0
2014-Oct-16 07:31N 30°05' W 090°55'4 3.3
2014-Oct-16 06:24N 30°08' W 090°56'4 1.9
2014-Oct-16 04:20N 30°07' W 091°00'5 0.3
2014-Oct-15 13:17N 30°05' W 090°55'2 3.0
2014-Oct-15 12:33N 30°04' W 090°53'2 2.1
2014-Oct-15 11:31N 30°03' W 090°50'4 4.1
2014-Oct-15 10:33N 29°59' W 090°48'2 2.1
2014-Oct-15 09:33N 30°01' W 090°46'0 0.0
2014-Oct-15 08:33N 30°01' W 090°46'0 0.0
2014-Oct-15 07:33N 30°01' W 090°46'0 0.0
2014-Oct-15 06:22N 30°01' W 090°46'0 0.0
2014-Oct-15 05:33N 30°01' W 090°46'0 0.0
2014-Oct-15 04:33N 30°01' W 090°46'0 0.5
2014-Oct-15 03:33N 30°01' W 090°46'0 0.0
2014-Oct-15 02:17N 30°01' W 090°46'3 4.0
2014-Oct-15 01:33N 29°59' W 090°49'  

Dump ship's entire track history